Time;durP1;ratioP1;P1;durP2;ratioP2;P2;SDS_P1;SDS_P2;PMS_P1;PMS_P2;Temp;Humidity;BMP_temperature;BMP_pressure;BME280_temperature;BME280_humidity;BME280_pressure;Samples;Min_cycle;Max_cycle;Signal;HPM_P1;HPM_P2
2022/01/20 00:00:14;;;;;;;;;23.75;18.00;;;;;;;;5082549;28;11586;-80
2022/01/20 00:02:42;;;;;;;;;22.75;20.50;;;;;;;;5078550;28;11427;-79
2022/01/20 00:05:26;;;;;;;;;28.25;23.25;;;;;;;;5081488;28;11581;-80
2022/01/20 00:08:07;;;;;;;;;19.75;17.25;;;;;;;;5061782;28;11524;-80
2022/01/20 00:27:07;;;;;;;;;14.50;14.50;;;;;;;;5082035;28;11514;-80
2022/01/20 00:30:01;;;;;;;;;21.00;17.00;;;;;;;;5082243;28;11461;-80
2022/01/20 00:32:27;;;;;;;;;17.00;17.00;;;;;;;;5076173;28;11406;-80
2022/01/20 00:35:12;;;;;;;;;15.25;9.25;;;;;;;;5086820;28;11470;-80
2022/01/20 00:37:40;;;;;;;;;16.00;13.75;;;;;;;;5080446;28;11470;-80
2022/01/20 00:40:08;;;;;;;;;19.00;14.00;;;;;;;;5081736;28;11504;-80
2022/01/20 00:42:36;;;;;;;;;13.50;12.00;;;;;;;;5082109;28;11462;-81
2022/01/20 00:45:03;;;;;;;;;23.75;14.50;;;;;;;;5084223;28;11442;-80
2022/01/20 00:47:31;;;;;;;;;18.00;17.00;;;;;;;;5082671;28;11598;-80
2022/01/20 00:49:58;;;;;;;;;15.75;13.25;;;;;;;;5081432;28;11505;-80
2022/01/20 00:52:26;;;;;;;;;13.75;12.75;;;;;;;;5080726;28;11489;-80
2022/01/20 00:54:54;;;;;;;;;19.00;15.50;;;;;;;;5080804;28;11477;-81
2022/01/20 00:57:22;;;;;;;;;14.25;12.25;;;;;;;;5080489;28;11509;-80
2022/01/20 00:59:49;;;;;;;;;15.50;12.75;;;;;;;;5080134;28;11459;-80
2022/01/20 01:02:17;;;;;;;;;13.00;10.50;;;;;;;;5067662;28;11517;-80
2022/01/20 01:04:44;;;;;;;;;19.75;14.00;;;;;;;;5081894;28;11436;-81
2022/01/20 01:09:57;;;;;;;;;16.00;14.50;;;;;;;;5067994;28;11536;-80
2022/01/20 01:12:33;;;;;;;;;15.75;12.25;;;;;;;;5080104;28;12265;-81
2022/01/20 01:15:02;;;;;;;;;12.00;12.00;;;;;;;;5081224;28;11584;-80
2022/01/20 01:20:18;;;;;;;;;13.00;13.00;;;;;;;;5080633;28;11590;-81
2022/01/20 01:22:46;;;;;;;;;5.75;5.75;;;;;;;;5080749;28;11513;-81
2022/01/20 01:25:15;;;;;;;;;13.50;11.50;;;;;;;;5064162;28;11562;-80
2022/01/20 01:27:44;;;;;;;;;13.00;11.75;;;;;;;;5082809;28;11538;-80
2022/01/20 01:32:58;;;;;;;;;10.25;8.50;;;;;;;;5084073;28;11531;-80
2022/01/20 01:35:27;;;;;;;;;11.25;10.00;;;;;;;;5047971;28;11601;-81
2022/01/20 01:40:42;;;;;;;;;12.25;12.25;;;;;;;;5081581;28;11498;-80
2022/01/20 01:43:26;;;;;;;;;15.25;11.75;;;;;;;;5084165;28;11565;-81
2022/01/20 01:45:53;;;;;;;;;12.00;12.00;;;;;;;;5080339;28;11516;-80
2022/01/20 01:48:21;;;;;;;;;11.50;11.25;;;;;;;;5084449;28;11505;-80
2022/01/20 01:50:48;;;;;;;;;12.25;12.00;;;;;;;;5057879;28;11681;-81
2022/01/20 01:53:16;;;;;;;;;8.00;5.25;;;;;;;;5070478;28;11698;-80
2022/01/20 01:55:45;;;;;;;;;9.00;9.00;;;;;;;;5061960;28;11556;-81
2022/01/20 01:58:12;;;;;;;;;15.50;15.50;;;;;;;;5060480;28;11535;-81
2022/01/20 02:00:40;;;;;;;;;9.00;9.00;;;;;;;;5063431;28;11505;-81
2022/01/20 02:03:08;;;;;;;;;5.75;5.75;;;;;;;;5064263;28;11539;-81
2022/01/20 02:05:45;;;;;;;;;9.00;9.00;;;;;;;;5063327;28;11507;-80
2022/01/20 02:19:19;;;;;;;;;14.00;9.75;;;;;;;;5054246;28;11525;-80
2022/01/20 02:21:50;;;;;;;;;18.50;12.00;;;;;;;;5061771;28;11511;-79
2022/01/20 02:24:18;;;;;;;;;16.75;12.00;;;;;;;;5064084;28;11751;-78
2022/01/20 02:26:46;;;;;;;;;11.00;10.00;;;;;;;;5063508;28;11544;-80
2022/01/20 02:29:14;;;;;;;;;14.00;12.00;;;;;;;;5063203;28;12064;-79
2022/01/20 02:31:41;;;;;;;;;10.25;9.50;;;;;;;;5062983;28;12266;-81
2022/01/20 02:34:11;;;;;;;;;17.50;11.75;;;;;;;;5063512;28;11598;-81
2022/01/20 02:36:40;;;;;;;;;12.00;9.50;;;;;;;;5062339;28;12342;-81
2022/01/20 02:39:23;;;;;;;;;9.00;9.00;;;;;;;;5061197;28;11588;-80
2022/01/20 02:44:53;;;;;;;;;10.00;10.00;;;;;;;;5068889;28;11504;-80
2022/01/20 02:47:23;;;;;;;;;10.25;10.00;;;;;;;;5061180;28;11531;-81
2022/01/20 02:49:51;;;;;;;;;9.00;6.50;;;;;;;;5065506;28;11494;-80
2022/01/20 02:52:18;;;;;;;;;7.25;7.25;;;;;;;;5081765;28;12341;-78
2022/01/20 02:54:47;;;;;;;;;3.50;3.00;;;;;;;;5083294;28;11472;-81
2022/01/20 02:57:14;;;;;;;;;6.00;5.00;;;;;;;;5086194;28;11510;-78
2022/01/20 02:59:42;;;;;;;;;5.25;5.00;;;;;;;;5083323;28;11539;-81
2022/01/20 03:02:09;;;;;;;;;4.00;4.00;;;;;;;;5088452;27;11445;-81
2022/01/20 03:04:38;;;;;;;;;4.00;4.00;;;;;;;;5081483;28;11569;-81
2022/01/20 03:07:06;;;;;;;;;4.00;4.00;;;;;;;;5081722;28;11591;-81
2022/01/20 03:09:34;;;;;;;;;4.50;4.50;;;;;;;;5082765;28;11518;-78
2022/01/20 03:12:04;;;;;;;;;5.00;3.50;;;;;;;;5083199;28;11006;-81
2022/01/20 03:14:32;;;;;;;;;6.50;4.75;;;;;;;;5078371;28;11589;-79
2022/01/20 03:16:59;;;;;;;;;4.50;1.75;;;;;;;;5085120;28;11613;-79
2022/01/20 03:19:32;;;;;;;;;3.50;2.00;;;;;;;;5064362;28;11471;-79
2022/01/20 03:22:00;;;;;;;;;5.75;4.00;;;;;;;;5078582;28;11484;-81
2022/01/20 03:24:27;;;;;;;;;2.00;2.00;;;;;;;;5082859;28;11488;-81
2022/01/20 03:26:54;;;;;;;;;1.00;1.00;;;;;;;;5082114;28;11492;-81
2022/01/20 03:29:23;;;;;;;;;4.25;2.00;;;;;;;;5065380;28;12152;-80
2022/01/20 03:31:50;;;;;;;;;3.50;3.50;;;;;;;;5063100;28;11464;-79
2022/01/20 03:34:21;;;;;;;;;2.00;2.00;;;;;;;;5087747;28;11485;-81
2022/01/20 03:36:49;;;;;;;;;3.50;1.25;;;;;;;;5067998;28;11501;-81
2022/01/20 03:39:16;;;;;;;;;0.75;0.75;;;;;;;;5064217;28;11471;-77
2022/01/20 03:41:44;;;;;;;;;5.00;2.00;;;;;;;;5082645;28;11470;-80
2022/01/20 03:44:11;;;;;;;;;3.00;1.00;;;;;;;;5081759;28;11492;-80
2022/01/20 03:46:40;;;;;;;;;1.75;1.75;;;;;;;;5081433;28;12295;-79
2022/01/20 03:49:11;;;;;;;;;5.75;1.00;;;;;;;;5080361;28;12466;-80
2022/01/20 03:51:38;;;;;;;;;1.00;1.00;;;;;;;;5064363;28;11483;-80
2022/01/20 03:54:06;;;;;;;;;2.50;2.00;;;;;;;;5080907;28;11476;-80
2022/01/20 03:56:34;;;;;;;;;2.75;1.75;;;;;;;;5080897;28;11487;-80
2022/01/20 03:59:01;;;;;;;;;5.00;2.00;;;;;;;;5082305;28;11467;-80
2022/01/20 04:01:28;;;;;;;;;3.50;3.50;;;;;;;;5074112;28;11439;-80
2022/01/20 04:03:57;;;;;;;;;4.00;0.00;;;;;;;;5066898;28;11471;-80
2022/01/20 04:06:27;;;;;;;;;4.75;2.50;;;;;;;;5074683;28;11586;-80
2022/01/20 04:08:55;;;;;;;;;1.75;1.75;;;;;;;;5086889;28;12382;-80
2022/01/20 04:11:24;;;;;;;;;3.00;3.00;;;;;;;;5080680;28;11512;-80
2022/01/20 04:13:52;;;;;;;;;6.00;4.25;;;;;;;;5082400;28;11474;-80
2022/01/20 04:16:30;;;;;;;;;1.00;1.00;;;;;;;;5082757;28;11596;-80
2022/01/20 04:18:59;;;;;;;;;11.00;6.00;;;;;;;;5081108;28;11487;-80
2022/01/20 04:21:29;;;;;;;;;3.75;2.00;;;;;;;;5081666;28;11667;-80
2022/01/20 04:23:59;;;;;;;;;5.25;2.00;;;;;;;;5061723;28;11479;-80
2022/01/20 04:26:28;;;;;;;;;2.00;2.00;;;;;;;;5078746;28;11565;-80
2022/01/20 04:28:56;;;;;;;;;4.00;4.00;;;;;;;;5075419;28;11556;-80
2022/01/20 04:31:24;;;;;;;;;4.00;4.00;;;;;;;;5080873;28;11444;-78
2022/01/20 04:33:51;;;;;;;;;6.50;5.00;;;;;;;;5080858;28;12292;-80
2022/01/20 04:36:20;;;;;;;;;4.00;4.00;;;;;;;;5074160;28;11522;-80
2022/01/20 04:38:47;;;;;;;;;5.50;4.00;;;;;;;;5077451;28;11595;-80
2022/01/20 04:41:15;;;;;;;;;5.00;5.00;;;;;;;;5072672;28;11485;-81
2022/01/20 04:43:42;;;;;;;;;2.00;2.00;;;;;;;;5085806;28;11574;-81
2022/01/20 04:46:16;;;;;;;;;4.25;4.25;;;;;;;;5079726;28;11565;-81
2022/01/20 04:48:59;;;;;;;;;5.00;2.00;;;;;;;;5077816;28;11501;-82
2022/01/20 04:59:42;;;;;;;;;4.00;4.00;;;;;;;;5077845;28;11546;-80
2022/01/20 05:02:10;;;;;;;;;2.50;2.50;;;;;;;;5066723;28;12226;-80
2022/01/20 05:04:38;;;;;;;;;1.50;1.25;;;;;;;;5085661;28;11542;-80
2022/01/20 05:07:08;;;;;;;;;3.50;3.50;;;;;;;;5084571;28;11461;-81
2022/01/20 05:09:36;;;;;;;;;4.00;4.00;;;;;;;;5084813;28;11615;-80
2022/01/20 05:12:07;;;;;;;;;2.50;2.50;;;;;;;;5082915;28;11520;-79
2022/01/20 05:14:35;;;;;;;;;2.00;2.00;;;;;;;;5089357;28;11689;-81
2022/01/20 05:17:02;;;;;;;;;5.00;5.00;;;;;;;;5085652;28;11478;-78
2022/01/20 05:19:31;;;;;;;;;4.75;4.75;;;;;;;;5084490;28;11518;-79
2022/01/20 05:21:58;;;;;;;;;4.00;4.00;;;;;;;;5083737;28;12325;-78
2022/01/20 05:24:27;;;;;;;;;2.00;2.00;;;;;;;;5084043;28;11610;-81
2022/01/20 05:26:57;;;;;;;;;3.50;3.50;;;;;;;;5086450;28;11657;-80
2022/01/20 05:29:25;;;;;;;;;3.75;3.50;;;;;;;;5084364;28;11521;-80
2022/01/20 05:31:54;;;;;;;;;4.25;4.00;;;;;;;;5085379;28;11806;-80
2022/01/20 05:34:21;;;;;;;;;3.00;3.00;;;;;;;;5086010;28;11511;-80
2022/01/20 05:36:49;;;;;;;;;4.00;2.00;;;;;;;;5087137;28;11605;-80
2022/01/20 05:39:16;;;;;;;;;4.00;2.00;;;;;;;;5084712;28;11468;-80
2022/01/20 05:41:46;;;;;;;;;4.25;4.00;;;;;;;;5078745;28;11499;-81
2022/01/20 05:44:13;;;;;;;;;1.50;1.50;;;;;;;;5086049;28;11502;-80
2022/01/20 05:46:46;;;;;;;;;4.50;2.00;;;;;;;;5083676;28;11666;-80
2022/01/20 05:49:20;;;;;;;;;5.00;2.00;;;;;;;;5068559;28;11588;-79
2022/01/20 05:51:48;;;;;;;;;5.00;3.00;;;;;;;;5084469;28;11541;-79
2022/01/20 05:54:16;;;;;;;;;6.00;5.25;;;;;;;;5085238;28;11647;-80
2022/01/20 05:56:44;;;;;;;;;4.75;4.75;;;;;;;;5084122;28;11468;-78
2022/01/20 05:59:12;;;;;;;;;5.25;5.25;;;;;;;;5085076;28;12253;-81
2022/01/20 06:01:40;;;;;;;;;4.25;4.25;;;;;;;;5084886;28;11411;-79
2022/01/20 06:04:09;;;;;;;;;2.50;2.50;;;;;;;;5083914;28;11507;-82
2022/01/20 06:06:37;;;;;;;;;3.00;3.00;;;;;;;;5084929;28;11619;-80
2022/01/20 06:09:05;;;;;;;;;9.25;8.75;;;;;;;;5091710;28;11555;-79
2022/01/20 06:11:33;;;;;;;;;6.00;4.00;;;;;;;;5083613;28;11532;-79
2022/01/20 06:14:02;;;;;;;;;7.25;5.00;;;;;;;;5084149;28;11526;-78
2022/01/20 06:16:29;;;;;;;;;12.75;7.00;;;;;;;;5083050;28;11547;-78
2022/01/20 06:18:56;;;;;;;;;6.75;5.50;;;;;;;;5084562;28;11533;-79
2022/01/20 06:21:24;;;;;;;;;3.00;2.00;;;;;;;;5083107;28;11483;-78
2022/01/20 06:23:52;;;;;;;;;5.75;5.00;;;;;;;;5085538;28;11471;-81
2022/01/20 06:26:19;;;;;;;;;2.00;2.00;;;;;;;;5081806;28;11492;-83
2022/01/20 06:28:47;;;;;;;;;4.50;2.00;;;;;;;;5068030;28;11517;-88
2022/01/20 06:31:16;;;;;;;;;3.00;3.00;;;;;;;;5086215;28;11516;-77
2022/01/20 06:33:43;;;;;;;;;4.75;2.50;;;;;;;;5100715;28;11611;-91
2022/01/20 06:36:11;;;;;;;;;5.00;3.50;;;;;;;;5082247;28;11464;-86
2022/01/20 06:38:38;;;;;;;;;3.00;1.75;;;;;;;;5081173;28;11492;-83
2022/01/20 06:41:05;;;;;;;;;4.00;4.00;;;;;;;;5083753;28;11483;-84
2022/01/20 06:43:33;;;;;;;;;5.25;4.00;;;;;;;;5082002;28;11578;-88
2022/01/20 06:46:01;;;;;;;;;9.00;7.75;;;;;;;;5085989;28;11477;-85
2022/01/20 06:48:30;;;;;;;;;5.50;4.00;;;;;;;;5083772;28;11531;-88
2022/01/20 06:50:57;;;;;;;;;6.50;4.00;;;;;;;;5081832;28;11509;-87
2022/01/20 06:53:24;;;;;;;;;4.50;2.00;;;;;;;;5081755;28;11480;-88
2022/01/20 06:55:52;;;;;;;;;8.75;4.00;;;;;;;;5083922;28;11537;-91
2022/01/20 06:58:21;;;;;;;;;6.00;5.00;;;;;;;;5063963;28;11582;-89
2022/01/20 07:00:49;;;;;;;;;7.25;5.00;;;;;;;;5064526;28;11476;-86
2022/01/20 07:03:17;;;;;;;;;4.00;4.00;;;;;;;;5084491;28;12349;-90
2022/01/20 07:05:46;;;;;;;;;6.00;4.50;;;;;;;;5078432;28;11549;-88
2022/01/20 07:08:13;;;;;;;;;2.00;2.00;;;;;;;;5082276;28;11544;-89
2022/01/20 07:10:40;;;;;;;;;6.50;2.00;;;;;;;;5091902;28;11502;-89
2022/01/20 07:13:08;;;;;;;;;4.25;4.25;;;;;;;;5072253;28;11514;-88
2022/01/20 07:15:35;;;;;;;;;4.75;2.50;;;;;;;;5085644;28;11528;-89
2022/01/20 07:18:03;;;;;;;;;7.25;5.00;;;;;;;;5084647;28;11592;-90
2022/01/20 07:20:31;;;;;;;;;5.00;5.00;;;;;;;;5083607;28;11540;-86
2022/01/20 07:23:00;;;;;;;;;4.50;4.00;;;;;;;;5080569;28;11495;-79
2022/01/20 07:25:27;;;;;;;;;7.75;4.75;;;;;;;;5059642;28;11514;-74
2022/01/20 07:27:55;;;;;;;;;7.00;7.00;;;;;;;;5080517;28;12236;-78
2022/01/20 07:30:22;;;;;;;;;4.75;4.75;;;;;;;;5080530;28;12299;-78
2022/01/20 07:32:49;;;;;;;;;5.00;5.00;;;;;;;;5082848;28;11504;-76
2022/01/20 07:35:17;;;;;;;;;8.25;8.00;;;;;;;;5079993;28;11477;-72
2022/01/20 07:37:44;;;;;;;;;12.25;7.50;;;;;;;;5067473;28;11507;-73
2022/01/20 07:40:13;;;;;;;;;7.00;7.00;;;;;;;;5076999;28;12112;-74
2022/01/20 07:42:41;;;;;;;;;9.50;9.50;;;;;;;;5083558;28;11525;-73
2022/01/20 07:45:09;;;;;;;;;8.50;7.75;;;;;;;;5081233;28;11653;-75
2022/01/20 07:47:36;;;;;;;;;6.00;6.00;;;;;;;;5059705;28;11542;-78
2022/01/20 07:50:05;;;;;;;;;9.00;6.00;;;;;;;;5082548;28;11491;-77
2022/01/20 07:52:32;;;;;;;;;5.00;5.00;;;;;;;;5082752;28;11638;-79
2022/01/20 07:55:00;;;;;;;;;8.00;8.00;;;;;;;;5082211;28;11569;-75
2022/01/20 07:57:28;;;;;;;;;9.00;6.00;;;;;;;;5080851;28;11502;-77
2022/01/20 07:59:56;;;;;;;;;7.50;7.50;;;;;;;;5083538;28;11483;-75
2022/01/20 08:02:23;;;;;;;;;4.50;4.50;;;;;;;;5080077;28;11465;-75
2022/01/20 08:04:50;;;;;;;;;6.00;6.00;;;;;;;;5083308;28;11534;-76
2022/01/20 08:07:19;;;;;;;;;6.00;6.00;;;;;;;;5079486;28;11516;-76
2022/01/20 08:09:49;;;;;;;;;9.25;5.25;;;;;;;;5077243;28;11561;-80
2022/01/20 08:12:17;;;;;;;;;6.00;6.00;;;;;;;;5082964;28;11524;-76
2022/01/20 08:14:46;;;;;;;;;8.00;8.00;;;;;;;;5078703;28;12941;-73
2022/01/20 08:17:13;;;;;;;;;11.25;7.50;;;;;;;;5081048;28;11500;-80
2022/01/20 08:19:41;;;;;;;;;9.00;9.00;;;;;;;;5080641;28;11659;-76
2022/01/20 08:22:08;;;;;;;;;13.25;9.00;;;;;;;;5082889;28;11493;-75
2022/01/20 08:24:36;;;;;;;;;9.00;9.00;;;;;;;;5081833;28;11546;-74
2022/01/20 08:27:03;;;;;;;;;6.00;4.25;;;;;;;;5082739;28;11520;-74
2022/01/20 08:29:31;;;;;;;;;8.00;8.00;;;;;;;;5079147;28;12268;-81
2022/01/20 08:31:59;;;;;;;;;11.75;6.00;;;;;;;;5079987;28;11452;-83
2022/01/20 08:34:27;;;;;;;;;10.75;8.00;;;;;;;;5084929;28;11503;-82
2022/01/20 08:36:55;;;;;;;;;15.00;10.75;;;;;;;;5084619;28;11495;-72
2022/01/20 08:42:06;;;;;;;;;6.00;6.00;;;;;;;;5085608;28;11475;-79
2022/01/20 08:44:33;;;;;;;;;8.75;8.75;;;;;;;;5085619;28;11513;-80
2022/01/20 08:47:03;;;;;;;;;9.50;9.50;;;;;;;;5068705;28;12261;-73
2022/01/20 08:49:30;;;;;;;;;10.25;10.25;;;;;;;;5085198;28;12275;-72
2022/01/20 08:51:59;;;;;;;;;6.50;6.50;;;;;;;;5085967;28;11673;-74
2022/01/20 08:54:27;;;;;;;;;6.50;6.50;;;;;;;;5084565;28;12093;-82
2022/01/20 08:56:54;;;;;;;;;13.00;10.25;;;;;;;;5089322;28;11495;-80
2022/01/20 08:59:21;;;;;;;;;12.00;9.00;;;;;;;;5091494;28;11534;-78
2022/01/20 09:01:49;;;;;;;;;7.00;7.00;;;;;;;;5080649;28;11523;-79
2022/01/20 09:04:17;;;;;;;;;9.50;8.00;;;;;;;;5086369;28;11590;-74
2022/01/20 09:06:45;;;;;;;;;9.50;8.25;;;;;;;;5072724;28;11463;-76
2022/01/20 09:09:14;;;;;;;;;8.00;6.00;;;;;;;;5101633;28;11488;-82
2022/01/20 09:12:02;;;;;;;;;8.00;5.75;;;;;;;;5066413;28;11564;-82
2022/01/20 09:17:13;;;;;;;;;8.25;5.00;;;;;;;;5086750;28;11456;-84
2022/01/20 09:19:42;;;;;;;;;9.25;7.50;;;;;;;;5067197;28;11546;-80
2022/01/20 09:22:10;;;;;;;;;8.00;5.00;;;;;;;;5086045;28;11472;-81
2022/01/20 09:24:38;;;;;;;;;11.25;8.00;;;;;;;;5085141;28;11613;-82
2022/01/20 09:27:06;;;;;;;;;9.75;6.25;;;;;;;;5065669;28;11479;-78
2022/01/20 09:29:33;;;;;;;;;9.25;7.50;;;;;;;;5085111;28;11507;-81
2022/01/20 09:32:04;;;;;;;;;8.25;7.00;;;;;;;;5087997;28;11457;-81
2022/01/20 09:34:33;;;;;;;;;12.75;6.00;;;;;;;;5086669;28;11549;-82
2022/01/20 09:37:02;;;;;;;;;8.00;8.00;;;;;;;;5082954;28;11500;-75
2022/01/20 09:39:29;;;;;;;;;4.00;4.00;;;;;;;;5067702;28;11459;-74
2022/01/20 09:41:58;;;;;;;;;9.50;6.00;;;;;;;;5086137;28;11534;-76
2022/01/20 09:44:26;;;;;;;;;9.00;8.00;;;;;;;;5085394;28;11579;-75
2022/01/20 09:46:54;;;;;;;;;5.25;3.50;;;;;;;;5085210;28;11610;-79
2022/01/20 09:49:22;;;;;;;;;8.00;5.75;;;;;;;;5087300;28;11557;-74
2022/01/20 09:51:49;;;;;;;;;8.00;6.00;;;;;;;;5096323;28;11635;-78
2022/01/20 09:54:18;;;;;;;;;8.25;8.25;;;;;;;;5069195;28;11541;-75
2022/01/20 09:56:46;;;;;;;;;8.25;8.00;;;;;;;;5060972;28;11580;-73
2022/01/20 09:59:13;;;;;;;;;9.50;9.00;;;;;;;;5064702;28;12560;-77
2022/01/20 10:01:43;;;;;;;;;10.50;10.50;;;;;;;;5064694;28;11482;-79
2022/01/20 10:04:20;;;;;;;;;10.25;7.75;;;;;;;;5063931;28;11560;-75
2022/01/20 10:06:55;;;;;;;;;11.00;9.00;;;;;;;;5067982;28;11547;-81
2022/01/20 10:09:29;;;;;;;;;13.25;9.75;;;;;;;;5065578;28;11573;-82
2022/01/20 10:11:57;;;;;;;;;17.00;17.00;;;;;;;;5065994;28;11668;-73
2022/01/20 10:14:24;;;;;;;;;13.75;13.75;;;;;;;;5065896;28;11538;-75
2022/01/20 10:16:53;;;;;;;;;13.50;9.50;;;;;;;;5063849;28;11692;-82
2022/01/20 10:19:26;;;;;;;;;15.25;10.50;;;;;;;;5072033;28;11518;-78
2022/01/20 10:21:54;;;;;;;;;10.00;9.00;;;;;;;;5064731;28;11565;-76
2022/01/20 10:24:21;;;;;;;;;12.75;7.00;;;;;;;;5064088;28;11516;-80
2022/01/20 10:26:52;;;;;;;;;16.25;9.25;;;;;;;;5064018;28;11481;-81
2022/01/20 10:29:20;;;;;;;;;20.50;14.00;;;;;;;;5060832;28;11504;-80
2022/01/20 10:31:51;;;;;;;;;9.50;8.00;;;;;;;;5062791;28;11464;-82
2022/01/20 10:34:28;;;;;;;;;12.00;12.00;;;;;;;;5063382;28;11472;-77
2022/01/20 10:36:59;;;;;;;;;10.25;9.75;;;;;;;;5065456;28;11479;-80
2022/01/20 10:39:31;;;;;;;;;19.25;13.75;;;;;;;;5063717;28;11496;-81
2022/01/20 10:42:01;;;;;;;;;9.75;8.75;;;;;;;;5064501;28;12306;-77
2022/01/20 10:44:28;;;;;;;;;8.50;8.50;;;;;;;;5063087;28;12248;-78
2022/01/20 10:46:58;;;;;;;;;6.00;5.25;;;;;;;;5065289;28;11470;-74
2022/01/20 10:49:31;;;;;;;;;8.00;5.75;;;;;;;;5065206;28;11447;-78
2022/01/20 10:52:04;;;;;;;;;7.75;7.75;;;;;;;;5060895;28;11465;-83
2022/01/20 10:54:37;;;;;;;;;7.25;4.75;;;;;;;;5083216;28;11438;-79
2022/01/20 10:57:07;;;;;;;;;6.25;6.25;;;;;;;;5083846;28;11477;-77
2022/01/20 10:59:37;;;;;;;;;14.00;10.00;;;;;;;;5083931;28;12215;-81
2022/01/20 11:02:08;;;;;;;;;14.50;14.50;;;;;;;;5083553;28;11418;-78
2022/01/20 11:04:37;;;;;;;;;16.50;12.00;;;;;;;;5082401;28;11519;-77
2022/01/20 11:07:07;;;;;;;;;11.00;9.00;;;;;;;;5078299;28;11454;-79
2022/01/20 11:09:38;;;;;;;;;19.00;14.75;;;;;;;;5065265;28;11437;-80
2022/01/20 11:12:08;;;;;;;;;8.00;8.00;;;;;;;;5083994;28;11557;-79
2022/01/20 11:14:36;;;;;;;;;13.75;11.50;;;;;;;;5081779;28;11449;-80
2022/01/20 11:17:04;;;;;;;;;13.00;12.00;;;;;;;;5084095;28;11545;-81
2022/01/20 11:19:37;;;;;;;;;16.00;12.75;;;;;;;;5083193;28;11480;-81
2022/01/20 11:22:09;;;;;;;;;17.50;17.50;;;;;;;;5078083;28;11479;-74
2022/01/20 11:24:36;;;;;;;;;30.25;26.75;;;;;;;;5082242;28;11551;-82
2022/01/20 11:27:07;;;;;;;;;30.25;28.00;;;;;;;;5086594;28;11541;-75
2022/01/20 11:29:45;;;;;;;;;16.50;14.50;;;;;;;;5081250;28;11472;-81
2022/01/20 11:32:21;;;;;;;;;33.00;32.25;;;;;;;;5080435;28;12361;-79
2022/01/20 11:34:59;;;;;;;;;8.50;8.50;;;;;;;;5081045;28;11707;-76
2022/01/20 11:37:27;;;;;;;;;15.50;11.25;;;;;;;;5066697;28;11446;-79
2022/01/20 11:39:56;;;;;;;;;9.00;9.00;;;;;;;;5090576;28;11491;-86
2022/01/20 11:42:26;;;;;;;;;18.00;15.50;;;;;;;;5095342;28;12258;-78
2022/01/20 11:44:54;;;;;;;;;17.25;13.25;;;;;;;;5061154;28;11592;-82
2022/01/20 11:47:32;;;;;;;;;11.00;7.00;;;;;;;;5082476;28;11462;-86
2022/01/20 11:50:00;;;;;;;;;15.50;13.25;;;;;;;;5080053;28;11048;-83
2022/01/20 11:52:29;;;;;;;;;19.25;16.50;;;;;;;;5080057;28;11523;-76
2022/01/20 11:54:56;;;;;;;;;5.00;5.00;;;;;;;;5082245;28;11580;-75
2022/01/20 11:57:30;;;;;;;;;10.75;10.25;;;;;;;;5082378;28;11203;-75
2022/01/20 12:00:01;;;;;;;;;8.00;8.00;;;;;;;;5084665;28;11231;-79
2022/01/20 12:02:32;;;;;;;;;16.50;10.00;;;;;;;;5082743;28;10956;-73
2022/01/20 12:05:00;;;;;;;;;7.50;6.75;;;;;;;;5080910;28;11085;-77
2022/01/20 12:07:29;;;;;;;;;9.00;9.00;;;;;;;;5080588;28;12292;-75
2022/01/20 12:10:07;;;;;;;;;11.50;7.00;;;;;;;;5079653;28;11015;-80
2022/01/20 12:12:35;;;;;;;;;9.75;7.00;;;;;;;;5083287;28;10910;-83
2022/01/20 12:15:14;;;;;;;;;10.25;10.25;;;;;;;;5096572;28;11192;-72
2022/01/20 12:17:48;;;;;;;;;7.00;5.75;;;;;;;;5081663;28;11197;-78
2022/01/20 12:20:16;;;;;;;;;10.50;6.50;;;;;;;;5073273;28;10924;-77
2022/01/20 12:22:45;;;;;;;;;9.00;6.00;;;;;;;;5081822;28;10947;-78
2022/01/20 12:25:18;;;;;;;;;12.00;10.00;;;;;;;;5083266;28;10930;-76
2022/01/20 12:27:50;;;;;;;;;7.75;7.00;;;;;;;;5082135;28;11174;-77
2022/01/20 12:30:25;;;;;;;;;10.25;10.25;;;;;;;;5082744;28;11108;-74
2022/01/20 12:33:00;;;;;;;;;14.00;7.00;;;;;;;;5082125;28;11503;-78
2022/01/20 12:35:36;;;;;;;;;7.00;7.00;;;;;;;;5070187;28;10986;-78
2022/01/20 12:38:19;;;;;;;;;5.75;5.75;;;;;;;;5082553;28;10975;-74
2022/01/20 12:40:50;;;;;;;;;4.50;4.50;;;;;;;;5073415;28;11041;-72
2022/01/20 12:43:19;;;;;;;;;6.50;5.00;;;;;;;;5080687;28;10968;-78
2022/01/20 12:45:55;;;;;;;;;4.00;4.00;;;;;;;;5081256;28;10977;-79
2022/01/20 12:48:23;;;;;;;;;7.00;5.25;;;;;;;;5083381;28;10951;-78
2022/01/20 12:50:55;;;;;;;;;5.75;5.75;;;;;;;;5079313;28;11147;-77
2022/01/20 12:53:36;;;;;;;;;10.00;6.00;;;;;;;;5080652;28;11034;-79
2022/01/20 12:56:04;;;;;;;;;3.50;3.50;;;;;;;;5080355;28;11083;-78
2022/01/20 12:58:32;;;;;;;;;6.50;6.50;;;;;;;;5080577;28;10983;-79
2022/01/20 13:01:03;;;;;;;;;5.00;2.25;;;;;;;;5079686;28;11003;-76
2022/01/20 13:03:36;;;;;;;;;8.50;8.50;;;;;;;;5080463;28;10886;-79
2022/01/20 13:06:04;;;;;;;;;3.50;3.50;;;;;;;;5079224;28;10958;-80
2022/01/20 13:08:35;;;;;;;;;9.25;7.00;;;;;;;;5081369;28;10917;-75
2022/01/20 13:11:05;;;;;;;;;5.75;5.75;;;;;;;;5083566;28;10984;-80
2022/01/20 13:13:33;;;;;;;;;9.50;6.50;;;;;;;;5087098;28;11051;-79
2022/01/20 13:16:12;;;;;;;;;10.50;9.75;;;;;;;;5083136;28;10981;-79
2022/01/20 13:18:40;;;;;;;;;5.00;4.25;;;;;;;;5084077;28;11235;-77
2022/01/20 13:21:08;;;;;;;;;4.75;4.75;;;;;;;;5084133;28;11147;-76
2022/01/20 13:23:57;;;;;;;;;1.75;1.75;;;;;;;;5086498;28;11123;-79
2022/01/20 13:26:26;;;;;;;;;4.00;4.00;;;;;;;;5084037;28;11280;-79
2022/01/20 13:29:00;;;;;;;;;3.50;3.50;;;;;;;;5086699;28;11599;-79
2022/01/20 13:31:30;;;;;;;;;0.50;0.00;;;;;;;;5082414;27;11387;-79
2022/01/20 13:34:01;;;;;;;;;2.00;0.50;;;;;;;;5084427;28;11464;-78
2022/01/20 13:36:39;;;;;;;;;5.75;4.00;;;;;;;;5084828;28;11435;-77
2022/01/20 13:39:07;;;;;;;;;3.50;3.50;;;;;;;;5081933;28;11563;-76
2022/01/20 13:41:35;;;;;;;;;3.25;3.25;;;;;;;;5082933;28;11429;-72
2022/01/20 13:47:07;;;;;;;;;38.25;30.50;;;;;;;;5096002;28;11411;-71
2022/01/20 13:49:34;;;;;;;;;20.50;17.50;;;;;;;;5080128;28;11638;-82
2022/01/20 13:52:05;;;;;;;;;4.50;4.00;;;;;;;;5085337;28;11494;-70
2022/01/20 13:54:41;;;;;;;;;1.75;0.50;;;;;;;;5087096;28;11548;-76
2022/01/20 13:57:09;;;;;;;;;15.50;15.50;;;;;;;;5096911;28;11132;-75
2022/01/20 13:59:36;;;;;;;;;5.00;5.00;;;;;;;;5086938;28;11454;-74
2022/01/20 14:02:05;;;;;;;;;1.50;1.50;;;;;;;;5082808;28;11375;-69
2022/01/20 14:04:32;;;;;;;;;0.75;0.75;;;;;;;;5089442;28;11534;-74
2022/01/20 14:07:00;;;;;;;;;5.25;2.75;;;;;;;;5082141;28;10954;-74
2022/01/20 14:09:27;;;;;;;;;0.00;0.00;;;;;;;;5081547;28;11210;-69
2022/01/20 14:11:55;;;;;;;;;0.00;0.00;;;;;;;;5083670;28;11188;-72
2022/01/20 14:14:22;;;;;;;;;1.00;1.00;;;;;;;;5080728;28;11198;-71
2022/01/20 14:16:49;;;;;;;;;11.75;8.00;;;;;;;;5082646;28;11517;-80
2022/01/20 14:19:22;;;;;;;;;2.00;2.00;;;;;;;;5083186;28;11574;-73
2022/01/20 14:21:51;;;;;;;;;0.00;0.00;;;;;;;;5083426;28;11428;-75
2022/01/20 14:24:18;;;;;;;;;2.00;2.00;;;;;;;;5082595;28;11402;-71
2022/01/20 14:26:45;;;;;;;;;4.00;4.00;;;;;;;;5081436;28;12187;-70
2022/01/20 14:29:13;;;;;;;;;36.25;33.25;;;;;;;;5080561;28;11893;-76
2022/01/20 14:31:40;;;;;;;;;13.25;13.25;;;;;;;;5082331;28;11532;-76
2022/01/20 14:34:08;;;;;;;;;3.50;3.00;;;;;;;;5084632;28;12356;-73
2022/01/20 14:36:37;;;;;;;;;6.00;6.00;;;;;;;;5081648;28;11560;-78
2022/01/20 14:39:05;;;;;;;;;7.50;4.25;;;;;;;;5085422;28;11454;-81
2022/01/20 14:41:35;;;;;;;;;0.00;0.00;;;;;;;;5080742;28;11448;-79
2022/01/20 14:44:03;;;;;;;;;0.00;0.00;;;;;;;;5082795;28;11429;-80
2022/01/20 14:46:30;;;;;;;;;14.00;10.75;;;;;;;;5083567;28;11612;-79
2022/01/20 14:48:57;;;;;;;;;11.25;9.75;;;;;;;;5083614;28;11511;-75
2022/01/20 14:51:25;;;;;;;;;2.00;2.00;;;;;;;;5083259;28;11472;-73
2022/01/20 14:53:54;;;;;;;;;4.75;4.00;;;;;;;;5083104;28;11402;-80
2022/01/20 14:56:22;;;;;;;;;14.00;14.00;;;;;;;;5084276;28;11458;-76
2022/01/20 14:58:50;;;;;;;;;5.50;3.75;;;;;;;;5082543;28;11534;-79
2022/01/20 15:01:18;;;;;;;;;9.00;9.00;;;;;;;;5083722;28;11493;-75
2022/01/20 15:03:47;;;;;;;;;1.75;1.75;;;;;;;;5084109;28;11415;-78
2022/01/20 15:06:14;;;;;;;;;4.25;4.25;;;;;;;;5081913;28;11408;-80
2022/01/20 15:08:42;;;;;;;;;4.00;4.00;;;;;;;;5084600;28;11437;-76
2022/01/20 15:11:10;;;;;;;;;5.00;5.00;;;;;;;;5082321;28;11427;-77
2022/01/20 15:13:38;;;;;;;;;13.25;8.25;;;;;;;;5082278;28;11584;-78
2022/01/20 15:16:06;;;;;;;;;7.50;5.00;;;;;;;;5081407;28;12199;-80
2022/01/20 15:18:35;;;;;;;;;13.00;13.00;;;;;;;;5066289;28;11485;-79
2022/01/20 15:21:03;;;;;;;;;7.25;7.25;;;;;;;;5083172;28;11538;-80
2022/01/20 15:23:30;;;;;;;;;21.25;18.50;;;;;;;;5083243;28;11491;-81
2022/01/20 15:25:59;;;;;;;;;10.00;9.00;;;;;;;;5081064;28;11610;-85
2022/01/20 15:28:30;;;;;;;;;17.00;16.50;;;;;;;;5081577;28;11633;-80
2022/01/20 15:30:57;;;;;;;;;13.25;13.25;;;;;;;;5080488;28;11471;-80
2022/01/20 15:33:24;;;;;;;;;34.75;30.00;;;;;;;;5083295;28;11528;-78
2022/01/20 15:35:54;;;;;;;;;25.50;19.75;;;;;;;;5088637;28;12318;-80
2022/01/20 15:38:22;;;;;;;;;20.50;17.25;;;;;;;;5084753;28;12404;-79
2022/01/20 15:40:50;;;;;;;;;13.50;12.50;;;;;;;;5053037;28;11523;-79
2022/01/20 15:43:18;;;;;;;;;30.50;27.00;;;;;;;;5075815;28;11611;-79
2022/01/20 15:45:46;;;;;;;;;16.75;16.75;;;;;;;;5087909;28;11548;-79